<?xml version='1.0' encoding='UTF-8' standalone='yes' ?>
<gpx version="1.1" creator="nl.sogeti.android.gpstracker" xsi:schemaLocation="http://www.topografix.com/GPX/1/1 http://www.topografix.com/gpx/1/1/gpx.xsd" xmlns="http://www.topografix.com/GPX/1/1" xmlns:xsi="http://www.w3.org/2001/XMLSchema-instance" xmlns:gpx10="http://www.topografix.com/GPX/1/0" xmlns:ogt10="http://gpstracker.android.sogeti.nl/GPX/1/0">
<metadata>
<time>2011-03-05T12:09:03Z</time>
</metadata>
<trk>
<name>Track 2011-03-05 13:09</name>
<trkseg>
<trkpt lat="46.65078726" lon="7.72985221">
<ele>969.4000244140625</ele>
<time>2011-03-05T12:12:14Z</time>
<extensions>
<ogt10:accuracy>8.0</ogt10:accuracy></extensions>
</trkpt>
<trkpt lat="46.65106544" lon="7.72923184">
<ele>960.4000244140625</ele>
<time>2011-03-05T12:12:51Z</time>
<extensions>
<gpx10:speed>0.9013878107070923</gpx10:speed>
<ogt10:accuracy>51.0</ogt10:accuracy>
<gpx10:course>308.29998779296875</gpx10:course></extensions>
</trkpt>
<trkpt lat="46.65201803" lon="7.72985836">
<ele>940.0</ele>
<time>2011-03-05T12:14:37Z</time>
<extensions>
<gpx10:speed>3.605551242828369</gpx10:speed>
<ogt10:accuracy>38.0</ogt10:accuracy>
<gpx10:course>117.30000305175781</gpx10:course></extensions>
</trkpt>
<trkpt lat="46.6520534" lon="7.73004227">
<ele>959.7000122070313</ele>
<time>2011-03-05T12:15:10Z</time>
<extensions>
<ogt10:accuracy>10.0</ogt10:accuracy></extensions>
</trkpt>
<trkpt lat="46.65220528" lon="7.72982097">
<ele>963.0</ele>
<time>2011-03-05T12:16:27Z</time>
<extensions>
<gpx10:speed>1.1180340051651</gpx10:speed>
<ogt10:accuracy>15.0</ogt10:accuracy>
<gpx10:course>309.8999938964844</gpx10:course></extensions>
</trkpt>
<trkpt lat="46.65239344" lon="7.72937076">
<ele>955.7000122070313</ele>
<time>2011-03-05T12:16:46Z</time>
<extensions>
<gpx10:speed>0.75</gpx10:speed>
<ogt10:accuracy>13.0</ogt10:accuracy>
<gpx10:course>268.20001220703125</gpx10:course></extensions>
</trkpt>
<trkpt lat="46.65257916" lon="7.72926179">
<ele>955.0</ele>
<time>2011-03-05T12:16:53Z</time>
<extensions>
<gpx10:speed>1.25</gpx10:speed>
<ogt10:accuracy>11.0</ogt10:accuracy>
<gpx10:course>313.5</gpx10:course></extensions>
</trkpt>
<trkpt lat="46.65274933" lon="7.72917689">
<ele>952.2000122070313</ele>
<time>2011-03-05T12:17:00Z</time>
<extensions>
<gpx10:speed>1.25</gpx10:speed>
<ogt10:accuracy>11.0</ogt10:accuracy>
<gpx10:course>351.6000061035156</gpx10:course></extensions>
</trkpt>
<trkpt lat="46.65289788" lon="7.72905326">
<ele>945.2000122070313</ele>
<time>2011-03-05T12:17:13Z</time>
<extensions>
<gpx10:speed>0.9013878107070923</gpx10:speed>
<ogt10:accuracy>10.0</ogt10:accuracy>
<gpx10:course>342.8999938964844</gpx10:course></extensions>
</trkpt>
<trkpt lat="46.65298043" lon="7.72897153">
<ele>942.5999755859375</ele>
<time>2011-03-05T12:17:17Z</time>
<extensions>
<gpx10:speed>1.346291184425354</gpx10:speed>
<ogt10:accuracy>10.0</ogt10:accuracy>
<gpx10:course>357.20001220703125</gpx10:course></extensions>
</trkpt>
<trkpt lat="46.65306714" lon="7.72877878">
<ele>936.2000122070313</ele>
<time>2011-03-05T12:17:28Z</time>
<extensions>
<gpx10:speed>1.25</gpx10:speed>
<ogt10:accuracy>11.0</ogt10:accuracy>
<gpx10:course>326.1000061035156</gpx10:course></extensions>
</trkpt>
<trkpt lat="46.65314892" lon="7.72867406">
<ele>934.4000244140625</ele>
<time>2011-03-05T12:17:34Z</time>
<extensions>
<gpx10:speed>1.346291184425354</gpx10:speed>
<ogt10:accuracy>8.0</ogt10:accuracy>
<gpx10:course>3.5999999046325684</gpx10:course></extensions>
</trkpt>
<trkpt lat="46.65327192" lon="7.72867439">
<ele>932.9000244140625</ele>
<time>2011-03-05T12:17:40Z</time>
<extensions>
<gpx10:speed>2.0</gpx10:speed>
<ogt10:accuracy>8.0</ogt10:accuracy>
<gpx10:course>6.199999809265137</gpx10:course></extensions>
</trkpt>
<trkpt lat="46.6533848" lon="7.72869879">
<ele>933.7000122070313</ele>
<time>2011-03-05T12:17:49Z</time>
<extensions>
<gpx10:speed>1.5</gpx10:speed>
<ogt10:accuracy>8.0</ogt10:accuracy>
<gpx10:course>16.600000381469727</gpx10:course></extensions>
</trkpt>
<trkpt lat="46.65347667" lon="7.72870487">
<ele>934.5999755859375</ele>
<time>2011-03-05T12:17:57Z</time>
<extensions>
<gpx10:speed>1.5</gpx10:speed>
<ogt10:accuracy>8.0</ogt10:accuracy>
<gpx10:course>17.5</gpx10:course></extensions>
</trkpt>
<trkpt lat="46.65357599" lon="7.72872173">
<ele>934.2000122070313</ele>
<time>2011-03-05T12:18:02Z</time>
<extensions>
<gpx10:speed>1.75</gpx10:speed>
<ogt10:accuracy>9.0</ogt10:accuracy>
<gpx10:course>18.799999237060547</gpx10:course></extensions>
</trkpt>
<trkpt lat="46.65423008" lon="7.72810458">
<ele>924.9000244140625</ele>
<time>2011-03-05T12:19:16Z</time>
<extensions>
<gpx10:speed>1.5</gpx10:speed>
<ogt10:accuracy>10.0</ogt10:accuracy>
<gpx10:course>283.79998779296875</gpx10:course></extensions>
</trkpt>
<trkpt lat="46.65429513" lon="7.72795598">
<ele>922.0999755859375</ele>
<time>2011-03-05T12:19:26Z</time>
<extensions>
<gpx10:speed>1.5</gpx10:speed>
<ogt10:accuracy>8.0</ogt10:accuracy>
<gpx10:course>297.1000061035156</gpx10:course></extensions>
</trkpt>
<trkpt lat="46.65429585" lon="7.72779346">
<ele>918.7999877929688</ele>
<time>2011-03-05T12:19:34Z</time>
<extensions>
<gpx10:speed>1.5</gpx10:speed>
<ogt10:accuracy>9.0</ogt10:accuracy>
<gpx10:course>272.70001220703125</gpx10:course></extensions>
</trkpt>
<trkpt lat="46.65434986" lon="7.72766416">
<ele>920.2000122070313</ele>
<time>2011-03-05T12:19:41Z</time>
<extensions>
<gpx10:speed>1.346291184425354</gpx10:speed>
<ogt10:accuracy>9.0</ogt10:accuracy>
<gpx10:course>299.29998779296875</gpx10:course></extensions>
</trkpt>
<trkpt lat="46.65445432" lon="7.72746725">
<ele>920.2999877929688</ele>
<time>2011-03-05T12:19:50Z</time>
<extensions>
<gpx10:speed>2.0</gpx10:speed>
<ogt10:accuracy>9.0</ogt10:accuracy>
<gpx10:course>306.79998779296875</gpx10:course></extensions>
</trkpt>
<trkpt lat="46.65453762" lon="7.72738206">
<ele>917.7999877929688</ele>
<time>2011-03-05T12:19:59Z</time>
<extensions>
<gpx10:speed>1.5</gpx10:speed>
<ogt10:accuracy>8.0</ogt10:accuracy>
<gpx10:course>319.5</gpx10:course></extensions>
</trkpt>
<trkpt lat="46.65463893" lon="7.72739303">
<ele>915.5</ele>
<time>2011-03-05T12:20:04Z</time>
<extensions>
<gpx10:speed>1.25</gpx10:speed>
<ogt10:accuracy>8.0</ogt10:accuracy>
<gpx10:course>336.8999938964844</gpx10:course></extensions>
</trkpt>
<trkpt lat="46.65473563" lon="7.72734695">
<ele>913.7999877929688</ele>
<time>2011-03-05T12:20:18Z</time>
<extensions>
<gpx10:speed>1.0</gpx10:speed>
<ogt10:accuracy>7.0</ogt10:accuracy>
<gpx10:course>336.29998779296875</gpx10:course></extensions>
</trkpt>
<trkpt lat="46.65481852" lon="7.72726418">
<ele>911.2999877929688</ele>
<time>2011-03-05T12:20:30Z</time>
<extensions>
<gpx10:speed>1.1180340051651</gpx10:speed>
<ogt10:accuracy>8.0</ogt10:accuracy>
<gpx10:course>6.099999904632568</gpx10:course></extensions>
</trkpt>
<trkpt lat="46.65486165" lon="7.72712947">
<ele>906.5999755859375</ele>
<time>2011-03-05T12:21:08Z</time>
<extensions>
<gpx10:speed>1.25</gpx10:speed>
<ogt10:accuracy>10.0</ogt10:accuracy>
<gpx10:course>269.3999938964844</gpx10:course></extensions>
</trkpt>
<trkpt lat="46.65470602" lon="7.72590966">
<ele>901.0999755859375</ele>
<time>2011-03-05T12:22:49Z</time>
<extensions>
<gpx10:speed>1.5</gpx10:speed>
<ogt10:accuracy>10.0</ogt10:accuracy>
<gpx10:course>278.6000061035156</gpx10:course></extensions>
</trkpt>
</trkseg>
<trkseg>
<trkpt lat="46.65574063" lon="7.72523815">
<ele>880.5999755859375</ele>
<time>2011-03-05T12:24:33Z</time>
<extensions>
<gpx10:speed>1.75</gpx10:speed>
<ogt10:accuracy>22.0</ogt10:accuracy>
<gpx10:course>324.29998779296875</gpx10:course></extensions>
</trkpt>
<trkpt lat="46.65583375" lon="7.72498412">
<ele>878.7999877929688</ele>
<time>2011-03-05T12:24:48Z</time>
<extensions>
<gpx10:speed>1.5</gpx10:speed>
<ogt10:accuracy>17.0</ogt10:accuracy>
<gpx10:course>304.0</gpx10:course></extensions>
</trkpt>
<trkpt lat="46.65568945" lon="7.72478272">
<ele>879.4000244140625</ele>
<time>2011-03-05T12:24:56Z</time>
<extensions>
<gpx10:speed>0.75</gpx10:speed>
<ogt10:accuracy>16.0</ogt10:accuracy>
<gpx10:course>278.20001220703125</gpx10:course></extensions>
</trkpt>
<trkpt lat="46.65570491" lon="7.72455837">
<ele>879.5999755859375</ele>
<time>2011-03-05T12:25:07Z</time>
<extensions>
<gpx10:speed>1.25</gpx10:speed>
<ogt10:accuracy>13.0</ogt10:accuracy>
<gpx10:course>295.20001220703125</gpx10:course></extensions>
</trkpt>
<trkpt lat="46.65580586" lon="7.72438563">
<ele>873.4000244140625</ele>
<time>2011-03-05T12:25:18Z</time>
<extensions>
<gpx10:speed>1.25</gpx10:speed>
<ogt10:accuracy>12.0</ogt10:accuracy>
<gpx10:course>303.5</gpx10:course></extensions>
</trkpt>
<trkpt lat="46.6559077" lon="7.72420021">
<ele>865.7999877929688</ele>
<time>2011-03-05T12:25:31Z</time>
<extensions>
<gpx10:speed>1.25</gpx10:speed>
<ogt10:accuracy>11.0</ogt10:accuracy>
<gpx10:course>309.3999938964844</gpx10:course></extensions>
</trkpt>
<trkpt lat="46.65596994" lon="7.72410507">
<ele>863.9000244140625</ele>
<time>2011-03-05T12:25:35Z</time>
<extensions>
<gpx10:speed>1.5</gpx10:speed>
<ogt10:accuracy>10.0</ogt10:accuracy>
<gpx10:course>296.8999938964844</gpx10:course></extensions>
</trkpt>
<trkpt lat="46.65602883" lon="7.72398048">
<ele>860.2000122070313</ele>
<time>2011-03-05T12:25:45Z</time>
<extensions>
<gpx10:speed>0.5</gpx10:speed>
<ogt10:accuracy>10.0</ogt10:accuracy>
<gpx10:course>277.1000061035156</gpx10:course></extensions>
</trkpt>
<trkpt lat="46.65604332" lon="7.72377752">
<ele>859.5999755859375</ele>
<time>2011-03-05T12:25:58Z</time>
<extensions>
<gpx10:speed>0.75</gpx10:speed>
<ogt10:accuracy>11.0</ogt10:accuracy>
<gpx10:course>259.79998779296875</gpx10:course></extensions>
</trkpt>
<trkpt lat="46.65781429" lon="7.71871352">
<ele>813.2999877929688</ele>
<time>2011-03-05T12:39:13Z</time>
<extensions>
<gpx10:speed>2.0</gpx10:speed>
<ogt10:accuracy>13.0</ogt10:accuracy>
<gpx10:course>324.79998779296875</gpx10:course></extensions>
</trkpt>
<trkpt lat="46.65790312" lon="7.71847709">
<ele>812.0999755859375</ele>
<time>2011-03-05T12:39:38Z</time>
<extensions>
<gpx10:speed>0.75</gpx10:speed>
<ogt10:accuracy>12.0</ogt10:accuracy>
<gpx10:course>347.29998779296875</gpx10:course></extensions>
</trkpt>
<trkpt lat="46.65809795" lon="7.71843701">
<ele>814.2999877929688</ele>
<time>2011-03-05T12:39:45Z</time>
<extensions>
<gpx10:speed>1.5</gpx10:speed>
<ogt10:accuracy>10.0</ogt10:accuracy>
<gpx10:course>332.79998779296875</gpx10:course></extensions>
</trkpt>
<trkpt lat="46.65828152" lon="7.71846267">
<ele>815.7000122070313</ele>
<time>2011-03-05T12:39:55Z</time>
<extensions>
<gpx10:speed>1.25</gpx10:speed>
<ogt10:accuracy>12.0</ogt10:accuracy>
<gpx10:course>31.399999618530273</gpx10:course></extensions>
</trkpt>
<trkpt lat="46.65845456" lon="7.71809223">
<ele>811.9000244140625</ele>
<time>2011-03-05T12:40:20Z</time>
<extensions>
<gpx10:speed>1.5</gpx10:speed>
<ogt10:accuracy>12.0</ogt10:accuracy>
<gpx10:course>340.29998779296875</gpx10:course></extensions>
</trkpt>
<trkpt lat="46.6586368" lon="7.71800501">
<ele>813.5999755859375</ele>
<time>2011-03-05T12:40:35Z</time>
<extensions>
<gpx10:speed>1.5</gpx10:speed>
<ogt10:accuracy>10.0</ogt10:accuracy>
<gpx10:course>350.0</gpx10:course></extensions>
</trkpt>
<trkpt lat="46.65867756" lon="7.71798853">
<ele>813.7999877929688</ele>
<time>2011-03-05T12:40:46Z</time>
<extensions>
<ogt10:accuracy>10.0</ogt10:accuracy></extensions>
</trkpt>
<trkpt lat="46.65878077" lon="7.71786943">
<ele>809.5</ele>
<time>2011-03-05T12:41:37Z</time>
<extensions>
<gpx10:speed>1.25</gpx10:speed>
<ogt10:accuracy>10.0</ogt10:accuracy>
<gpx10:course>319.20001220703125</gpx10:course></extensions>
</trkpt>
<trkpt lat="46.65926719" lon="7.71649858">
<ele>813.7999877929688</ele>
<time>2011-03-05T12:43:01Z</time>
<extensions>
<gpx10:speed>1.5</gpx10:speed>
<ogt10:accuracy>10.0</ogt10:accuracy>
<gpx10:course>298.5</gpx10:course></extensions>
</trkpt>
<trkpt lat="46.65931756" lon="7.7163576">
<ele>814.7999877929688</ele>
<time>2011-03-05T12:43:09Z</time>
<extensions>
<gpx10:speed>1.75</gpx10:speed>
<ogt10:accuracy>10.0</ogt10:accuracy>
<gpx10:course>303.6000061035156</gpx10:course></extensions>
</trkpt>
<trkpt lat="46.65939301" lon="7.71628528">
<ele>814.0999755859375</ele>
<time>2011-03-05T12:43:14Z</time>
<extensions>
<gpx10:speed>1.75</gpx10:speed>
<ogt10:accuracy>10.0</ogt10:accuracy>
<gpx10:course>310.3999938964844</gpx10:course></extensions>
</trkpt>
<trkpt lat="46.65946125" lon="7.71616772">
<ele>814.2999877929688</ele>
<time>2011-03-05T12:43:24Z</time>
<extensions>
<gpx10:speed>1.75</gpx10:speed>
<ogt10:accuracy>8.0</ogt10:accuracy>
<gpx10:course>317.5</gpx10:course></extensions>
</trkpt>
<trkpt lat="46.65952845" lon="7.7160727">
<ele>813.2000122070313</ele>
<time>2011-03-05T12:43:33Z</time>
<extensions>
<gpx10:speed>1.25</gpx10:speed>
<ogt10:accuracy>8.0</ogt10:accuracy>
<gpx10:course>325.79998779296875</gpx10:course></extensions>
</trkpt>
<trkpt lat="46.65959928" lon="7.71597499">
<ele>811.2999877929688</ele>
<time>2011-03-05T12:43:41Z</time>
<extensions>
<gpx10:speed>1.5</gpx10:speed>
<ogt10:accuracy>7.0</ogt10:accuracy>
<gpx10:course>314.70001220703125</gpx10:course></extensions>
</trkpt>
<trkpt lat="46.65961246" lon="7.71584339">
<ele>809.0</ele>
<time>2011-03-05T12:43:47Z</time>
<extensions>
<gpx10:speed>1.75</gpx10:speed>
<ogt10:accuracy>6.0</ogt10:accuracy>
<gpx10:course>307.70001220703125</gpx10:course></extensions>
</trkpt>
<trkpt lat="46.65967449" lon="7.71572864">
<ele>807.0</ele>
<time>2011-03-05T12:43:56Z</time>
<extensions>
<gpx10:speed>1.5</gpx10:speed>
<ogt10:accuracy>6.0</ogt10:accuracy>
<gpx10:course>317.8999938964844</gpx10:course></extensions>
</trkpt>
<trkpt lat="46.65969486" lon="7.71560071">
<ele>807.2999877929688</ele>
<time>2011-03-05T12:44:07Z</time>
<extensions>
<gpx10:speed>1.25</gpx10:speed>
<ogt10:accuracy>7.0</ogt10:accuracy>
<gpx10:course>278.0</gpx10:course></extensions>
</trkpt>
<trkpt lat="46.65979565" lon="7.71565427">
<ele>806.2999877929688</ele>
<time>2011-03-05T12:44:21Z</time>
<extensions>
<gpx10:speed>0.75</gpx10:speed>
<ogt10:accuracy>7.0</ogt10:accuracy>
<gpx10:course>35.400001525878906</gpx10:course></extensions>
</trkpt>
<trkpt lat="46.65986794" lon="7.71556096">
<ele>809.5</ele>
<time>2011-03-05T12:44:36Z</time>
<extensions>
<gpx10:speed>1.75</gpx10:speed>
<ogt10:accuracy>9.0</ogt10:accuracy>
<gpx10:course>313.79998779296875</gpx10:course></extensions>
</trkpt>
<trkpt lat="46.65995558" lon="7.71547244">
<ele>811.0</ele>
<time>2011-03-05T12:44:45Z</time>
<extensions>
<gpx10:speed>1.5</gpx10:speed>
<ogt10:accuracy>9.0</ogt10:accuracy>
<gpx10:course>321.79998779296875</gpx10:course></extensions>
</trkpt>
<trkpt lat="46.65995223" lon="7.71533383">
<ele>808.4000244140625</ele>
<time>2011-03-05T12:44:55Z</time>
<extensions>
<gpx10:speed>1.0</gpx10:speed>
<ogt10:accuracy>9.0</ogt10:accuracy>
<gpx10:course>292.70001220703125</gpx10:course></extensions>
</trkpt>
<trkpt lat="46.6600755" lon="7.7152494">
<ele>808.0</ele>
<time>2011-03-05T12:45:01Z</time>
<extensions>
<gpx10:speed>1.75</gpx10:speed>
<ogt10:accuracy>8.0</ogt10:accuracy>
<gpx10:course>312.8999938964844</gpx10:course></extensions>
</trkpt>
<trkpt lat="46.66015926" lon="7.71518879">
<ele>809.5</ele>
<time>2011-03-05T12:45:09Z</time>
<extensions>
<gpx10:speed>1.5</gpx10:speed>
<ogt10:accuracy>9.0</ogt10:accuracy>
<gpx10:course>332.0</gpx10:course></extensions>
</trkpt>
<trkpt lat="46.66025199" lon="7.71513862">
<ele>810.4000244140625</ele>
<time>2011-03-05T12:45:15Z</time>
<extensions>
<gpx10:speed>1.5</gpx10:speed>
<ogt10:accuracy>8.0</ogt10:accuracy>
<gpx10:course>332.79998779296875</gpx10:course></extensions>
</trkpt>
<trkpt lat="46.66031722" lon="7.71502179">
<ele>809.4000244140625</ele>
<time>2011-03-05T12:45:22Z</time>
<extensions>
<gpx10:speed>1.5</gpx10:speed>
<ogt10:accuracy>7.0</ogt10:accuracy>
<gpx10:course>325.79998779296875</gpx10:course></extensions>
</trkpt>
<trkpt lat="46.66036899" lon="7.71489807">
<ele>804.5</ele>
<time>2011-03-05T12:45:33Z</time>
<extensions>
<gpx10:speed>1.75</gpx10:speed>
<ogt10:accuracy>9.0</ogt10:accuracy>
<gpx10:course>334.20001220703125</gpx10:course></extensions>
</trkpt>
<trkpt lat="46.66048452" lon="7.71493392">
<ele>805.7000122070313</ele>
<time>2011-03-05T12:45:36Z</time>
<extensions>
<gpx10:speed>2.5495097637176514</gpx10:speed>
<ogt10:accuracy>8.0</ogt10:accuracy>
<gpx10:course>9.0</gpx10:course></extensions>
</trkpt>
<trkpt lat="46.6603887" lon="7.71489069">
<ele>807.0999755859375</ele>
<time>2011-03-05T12:45:39Z</time>
<extensions>
<ogt10:accuracy>7.0</ogt10:accuracy></extensions>
</trkpt>
<trkpt lat="46.66035324" lon="7.71479775">
<ele>808.2999877929688</ele>
<time>2011-03-05T12:46:06Z</time>
<extensions>
<gpx10:speed>1.5</gpx10:speed>
<ogt10:accuracy>7.0</ogt10:accuracy>
<gpx10:course>308.8999938964844</gpx10:course></extensions>
</trkpt>
<trkpt lat="46.66043483" lon="7.71465454">
<ele>808.5999755859375</ele>
<time>2011-03-05T12:46:11Z</time>
<extensions>
<gpx10:speed>1.5811388492584229</gpx10:speed>
<ogt10:accuracy>7.0</ogt10:accuracy>
<gpx10:course>322.79998779296875</gpx10:course></extensions>
</trkpt>
<trkpt lat="46.66050369" lon="7.71453461">
<ele>808.9000244140625</ele>
<time>2011-03-05T12:46:17Z</time>
<extensions>
<gpx10:speed>1.5</gpx10:speed>
<ogt10:accuracy>8.0</ogt10:accuracy>
<gpx10:course>309.8999938964844</gpx10:course></extensions>
</trkpt>
<trkpt lat="46.66057342" lon="7.71440732">
<ele>805.7000122070313</ele>
<time>2011-03-05T12:46:25Z</time>
<extensions>
<gpx10:speed>1.25</gpx10:speed>
<ogt10:accuracy>8.0</ogt10:accuracy>
<gpx10:course>309.1000061035156</gpx10:course></extensions>
</trkpt>
<trkpt lat="46.66064948" lon="7.71431916">
<ele>807.7999877929688</ele>
<time>2011-03-05T12:46:32Z</time>
<extensions>
<gpx10:speed>1.75</gpx10:speed>
<ogt10:accuracy>7.0</ogt10:accuracy>
<gpx10:course>329.0</gpx10:course></extensions>
</trkpt>
<trkpt lat="46.66074647" lon="7.7142472">
<ele>808.0999755859375</ele>
<time>2011-03-05T12:46:39Z</time>
<extensions>
<gpx10:speed>1.75</gpx10:speed>
<ogt10:accuracy>6.0</ogt10:accuracy>
<gpx10:course>330.1000061035156</gpx10:course></extensions>
</trkpt>
<trkpt lat="46.66080598" lon="7.71413684">
<ele>809.5</ele>
<time>2011-03-05T12:46:46Z</time>
<extensions>
<gpx10:speed>2.0</gpx10:speed>
<ogt10:accuracy>6.0</ogt10:accuracy>
<gpx10:course>321.1000061035156</gpx10:course></extensions>
</trkpt>
<trkpt lat="46.66085375" lon="7.714076">
<ele>808.0999755859375</ele>
<time>2011-03-05T12:46:52Z</time>
<extensions>
<gpx10:speed>1.25</gpx10:speed>
<ogt10:accuracy>6.0</ogt10:accuracy>
<gpx10:course>323.70001220703125</gpx10:course></extensions>
</trkpt>
<trkpt lat="46.66093853" lon="7.714014">
<ele>806.7999877929688</ele>
<time>2011-03-05T12:46:57Z</time>
<extensions>
<gpx10:speed>1.5</gpx10:speed>
<ogt10:accuracy>6.0</ogt10:accuracy>
<gpx10:course>328.79998779296875</gpx10:course></extensions>
</trkpt>
<trkpt lat="46.66103114" lon="7.71393417">
<ele>805.5999755859375</ele>
<time>2011-03-05T12:47:05Z</time>
<extensions>
<gpx10:speed>1.75</gpx10:speed>
<ogt10:accuracy>6.0</ogt10:accuracy>
<gpx10:course>318.79998779296875</gpx10:course></extensions>
</trkpt>
<trkpt lat="46.66113507" lon="7.71394451">
<ele>802.0</ele>
<time>2011-03-05T12:47:25Z</time>
<extensions>
<gpx10:speed>0.75</gpx10:speed>
<ogt10:accuracy>7.0</ogt10:accuracy>
<gpx10:course>13.399999618530273</gpx10:course></extensions>
</trkpt>
<trkpt lat="46.66118234" lon="7.7138089">
<ele>802.5999755859375</ele>
<time>2011-03-05T12:47:37Z</time>
<extensions>
<gpx10:speed>1.75</gpx10:speed>
<ogt10:accuracy>7.0</ogt10:accuracy>
<gpx10:course>310.8999938964844</gpx10:course></extensions>
</trkpt>
<trkpt lat="46.66125505" lon="7.71369432">
<ele>804.0999755859375</ele>
<time>2011-03-05T12:47:45Z</time>
<extensions>
<gpx10:speed>1.5</gpx10:speed>
<ogt10:accuracy>8.0</ogt10:accuracy>
<gpx10:course>310.79998779296875</gpx10:course></extensions>
</trkpt>
<trkpt lat="46.66126051" lon="7.71358535">
<ele>804.2999877929688</ele>
<time>2011-03-05T12:47:51Z</time>
<extensions>
<gpx10:speed>1.25</gpx10:speed>
<ogt10:accuracy>6.0</ogt10:accuracy>
<gpx10:course>301.0</gpx10:course></extensions>
</trkpt>
<trkpt lat="46.66134762" lon="7.71348061">
<ele>804.5</ele>
<time>2011-03-05T12:47:59Z</time>
<extensions>
<gpx10:speed>1.5</gpx10:speed>
<ogt10:accuracy>7.0</ogt10:accuracy>
<gpx10:course>308.6000061035156</gpx10:course></extensions>
</trkpt>
<trkpt lat="46.66136914" lon="7.71340668">
<ele>803.5999755859375</ele>
<time>2011-03-05T12:48:03Z</time>
<extensions>
<gpx10:speed>1.25</gpx10:speed>
<ogt10:accuracy>6.0</ogt10:accuracy>
<gpx10:course>310.8999938964844</gpx10:course></extensions>
</trkpt>
<trkpt lat="46.66142256" lon="7.71337955">
<ele>803.9000244140625</ele>
<time>2011-03-05T12:48:06Z</time>
<extensions>
<gpx10:speed>1.75</gpx10:speed>
<ogt10:accuracy>6.0</ogt10:accuracy>
<gpx10:course>331.20001220703125</gpx10:course></extensions>
</trkpt>
<trkpt lat="46.66146604" lon="7.71334574">
<ele>803.2999877929688</ele>
<time>2011-03-05T12:48:09Z</time>
<extensions>
<gpx10:speed>1.75</gpx10:speed>
<ogt10:accuracy>5.0</ogt10:accuracy>
<gpx10:course>328.0</gpx10:course></extensions>
</trkpt>
<trkpt lat="46.66155866" lon="7.71328494">
<ele>803.5999755859375</ele>
<time>2011-03-05T12:48:16Z</time>
<extensions>
<gpx10:speed>1.75</gpx10:speed>
<ogt10:accuracy>9.0</ogt10:accuracy>
<gpx10:course>337.20001220703125</gpx10:course></extensions>
</trkpt>
<trkpt lat="46.66163578" lon="7.71315785">
<ele>807.7999877929688</ele>
<time>2011-03-05T12:48:26Z</time>
<extensions>
<gpx10:speed>1.5</gpx10:speed>
<ogt10:accuracy>7.0</ogt10:accuracy>
<gpx10:course>333.5</gpx10:course></extensions>
</trkpt>
<trkpt lat="46.66171708" lon="7.71307629">
<ele>806.5</ele>
<time>2011-03-05T12:48:35Z</time>
<extensions>
<gpx10:speed>1.5</gpx10:speed>
<ogt10:accuracy>7.0</ogt10:accuracy>
<gpx10:course>329.6000061035156</gpx10:course></extensions>
</trkpt>
<trkpt lat="46.66181578" lon="7.71301822">
<ele>807.5</ele>
<time>2011-03-05T12:48:45Z</time>
<extensions>
<gpx10:speed>1.5</gpx10:speed>
<ogt10:accuracy>7.0</ogt10:accuracy>
<gpx10:course>345.5</gpx10:course></extensions>
</trkpt>
<trkpt lat="46.66186191" lon="7.71296819">
<ele>810.2999877929688</ele>
<time>2011-03-05T12:48:50Z</time>
<extensions>
<gpx10:speed>1.5</gpx10:speed>
<ogt10:accuracy>6.0</ogt10:accuracy>
<gpx10:course>328.20001220703125</gpx10:course></extensions>
</trkpt>
<trkpt lat="46.66191956" lon="7.71285154">
<ele>812.0999755859375</ele>
<time>2011-03-05T12:48:57Z</time>
<extensions>
<gpx10:speed>1.25</gpx10:speed>
<ogt10:accuracy>7.0</ogt10:accuracy>
<gpx10:course>331.29998779296875</gpx10:course></extensions>
</trkpt>
<trkpt lat="46.66199625" lon="7.71277988">
<ele>811.9000244140625</ele>
<time>2011-03-05T12:49:05Z</time>
<extensions>
<gpx10:speed>1.0</gpx10:speed>
<ogt10:accuracy>7.0</ogt10:accuracy>
<gpx10:course>325.79998779296875</gpx10:course></extensions>
</trkpt>
<trkpt lat="46.66196604" lon="7.71267332">
<ele>811.5999755859375</ele>
<time>2011-03-05T12:49:16Z</time>
<extensions>
<gpx10:speed>0.5</gpx10:speed>
<ogt10:accuracy>8.0</ogt10:accuracy>
<gpx10:course>309.6000061035156</gpx10:course></extensions>
</trkpt>
<trkpt lat="46.6620137" lon="7.71256799">
<ele>810.7999877929688</ele>
<time>2011-03-05T12:49:24Z</time>
<extensions>
<gpx10:speed>0.75</gpx10:speed>
<ogt10:accuracy>8.0</ogt10:accuracy>
<gpx10:course>284.6000061035156</gpx10:course></extensions>
</trkpt>
<trkpt lat="46.66209617" lon="7.71254055">
<ele>810.2000122070313</ele>
<time>2011-03-05T12:49:42Z</time>
<extensions>
<gpx10:speed>1.25</gpx10:speed>
<ogt10:accuracy>7.0</ogt10:accuracy>
<gpx10:course>316.29998779296875</gpx10:course></extensions>
</trkpt>
<trkpt lat="46.66213408" lon="7.71239036">
<ele>812.9000244140625</ele>
<time>2011-03-05T12:49:51Z</time>
<extensions>
<gpx10:speed>1.25</gpx10:speed>
<ogt10:accuracy>6.0</ogt10:accuracy>
<gpx10:course>320.5</gpx10:course></extensions>
</trkpt>
<trkpt lat="46.66216743" lon="7.71232656">
<ele>811.7999877929688</ele>
<time>2011-03-05T12:49:56Z</time>
<extensions>
<gpx10:speed>1.25</gpx10:speed>
<ogt10:accuracy>6.0</ogt10:accuracy>
<gpx10:course>305.6000061035156</gpx10:course></extensions>
</trkpt>
<trkpt lat="46.66223791" lon="7.71220964">
<ele>810.7999877929688</ele>
<time>2011-03-05T12:50:04Z</time>
<extensions>
<gpx10:speed>1.5</gpx10:speed>
<ogt10:accuracy>8.0</ogt10:accuracy>
<gpx10:course>297.8999938964844</gpx10:course></extensions>
</trkpt>
<trkpt lat="46.66233292" lon="7.71213917">
<ele>809.5999755859375</ele>
<time>2011-03-05T12:50:12Z</time>
<extensions>
<gpx10:speed>1.25</gpx10:speed>
<ogt10:accuracy>8.0</ogt10:accuracy>
<gpx10:course>314.5</gpx10:course></extensions>
</trkpt>
<trkpt lat="46.66237406" lon="7.71203995">
<ele>806.0</ele>
<time>2011-03-05T12:50:31Z</time>
<extensions>
<gpx10:speed>0.25</gpx10:speed>
<ogt10:accuracy>7.0</ogt10:accuracy>
<gpx10:course>290.70001220703125</gpx10:course></extensions>
</trkpt>
<trkpt lat="46.66241751" lon="7.71193858">
<ele>803.0</ele>
<time>2011-03-05T12:55:23Z</time>
<extensions>
<gpx10:speed>2.0</gpx10:speed>
<ogt10:accuracy>9.0</ogt10:accuracy>
<gpx10:course>315.1000061035156</gpx10:course></extensions>
</trkpt>
<trkpt lat="46.662479" lon="7.71178142">
<ele>800.2000122070313</ele>
<time>2011-03-05T12:55:25Z</time>
<extensions>
<gpx10:speed>2.25</gpx10:speed>
<ogt10:accuracy>9.0</ogt10:accuracy>
<gpx10:course>302.0</gpx10:course></extensions>
</trkpt>
<trkpt lat="46.66260797" lon="7.7115052">
<ele>798.2000122070313</ele>
<time>2011-03-05T12:55:36Z</time>
<extensions>
<gpx10:speed>1.25</gpx10:speed>
<ogt10:accuracy>10.0</ogt10:accuracy>
<gpx10:course>294.20001220703125</gpx10:course></extensions>
</trkpt>
<trkpt lat="46.66265964" lon="7.71137471">
<ele>798.7999877929688</ele>
<time>2011-03-05T12:55:43Z</time>
<extensions>
<gpx10:speed>1.75</gpx10:speed>
<ogt10:accuracy>9.0</ogt10:accuracy>
<gpx10:course>300.79998779296875</gpx10:course></extensions>
</trkpt>
<trkpt lat="46.66274128" lon="7.71126999">
<ele>797.9000244140625</ele>
<time>2011-03-05T12:55:48Z</time>
<extensions>
<gpx10:speed>2.0</gpx10:speed>
<ogt10:accuracy>10.0</ogt10:accuracy>
<gpx10:course>309.5</gpx10:course></extensions>
</trkpt>
<trkpt lat="46.66277085" lon="7.71096359">
<ele>795.7000122070313</ele>
<time>2011-03-05T12:56:03Z</time>
<extensions>
<gpx10:speed>1.5</gpx10:speed>
<ogt10:accuracy>10.0</ogt10:accuracy>
<gpx10:course>293.1000061035156</gpx10:course></extensions>
</trkpt>
<trkpt lat="46.66288016" lon="7.71056667">
<ele>801.7000122070313</ele>
<time>2011-03-05T12:56:35Z</time>
<extensions>
<gpx10:speed>0.5</gpx10:speed>
<ogt10:accuracy>11.0</ogt10:accuracy>
<gpx10:course>294.79998779296875</gpx10:course></extensions>
</trkpt>
</trkseg>
<trkseg>
<trkpt lat="46.66300728" lon="7.71018496">
<ele>805.4000244140625</ele>
<time>2011-03-05T12:57:29Z</time>
<extensions>
<gpx10:speed>0.75</gpx10:speed>
<ogt10:accuracy>11.0</ogt10:accuracy>
<gpx10:course>325.3999938964844</gpx10:course></extensions>
</trkpt>
<trkpt lat="46.66303674" lon="7.7099815">
<ele>803.5</ele>
<time>2011-03-05T12:57:45Z</time>
<extensions>
<gpx10:speed>0.75</gpx10:speed>
<ogt10:accuracy>15.0</ogt10:accuracy>
<gpx10:course>291.70001220703125</gpx10:course></extensions>
</trkpt>
<trkpt lat="46.66341931" lon="7.70951623">
<ele>799.9000244140625</ele>
<time>2011-03-05T12:58:32Z</time>
<extensions>
<gpx10:speed>0.5</gpx10:speed>
<ogt10:accuracy>15.0</ogt10:accuracy>
<gpx10:course>353.70001220703125</gpx10:course></extensions>
</trkpt>
<trkpt lat="46.66325237" lon="7.70939915">
<ele>793.2999877929688</ele>
<time>2011-03-05T12:59:06Z</time>
<extensions>
<gpx10:speed>0.75</gpx10:speed>
<ogt10:accuracy>11.0</ogt10:accuracy>
<gpx10:course>173.6999969482422</gpx10:course></extensions>
</trkpt>
<trkpt lat="46.66322039" lon="7.70952427">
<ele>796.9000244140625</ele>
<time>2011-03-05T12:59:21Z</time>
<extensions>
<gpx10:speed>0.75</gpx10:speed>
<ogt10:accuracy>8.0</ogt10:accuracy>
<gpx10:course>173.6999969482422</gpx10:course></extensions>
</trkpt>
<trkpt lat="46.66326874" lon="7.70940509">
<ele>798.4000244140625</ele>
<time>2011-03-05T12:59:30Z</time>
<extensions>
<gpx10:speed>1.5</gpx10:speed>
<ogt10:accuracy>10.0</ogt10:accuracy>
<gpx10:course>283.6000061035156</gpx10:course></extensions>
</trkpt>
<trkpt lat="46.66549221" lon="7.7074372">
<ele>759.5</ele>
<time>2011-03-05T13:08:02Z</time>
<name>Hoehe-Spiez PP</name>
<extensions>
<ogt10:accuracy>10.0</ogt10:accuracy></extensions>
</trkpt>
<trkpt lat="46.66548084" lon="7.706985">
<ele>765.9000244140625</ele>
<time>2011-03-05T13:09:26Z</time>
<extensions>
<gpx10:speed>2.75</gpx10:speed>
<ogt10:accuracy>9.0</ogt10:accuracy>
<gpx10:course>217.5</gpx10:course></extensions>
</trkpt>
<trkpt lat="46.66547389" lon="7.70685878">
<ele>756.2000122070313</ele>
<time>2011-03-05T13:10:13Z</time>
<extensions>
<gpx10:speed>1.5</gpx10:speed>
<ogt10:accuracy>7.0</ogt10:accuracy>
<gpx10:course>312.20001220703125</gpx10:course></extensions>
</trkpt>
<trkpt lat="46.66549702" lon="7.70675057">
<ele>757.5</ele>
<time>2011-03-05T13:10:17Z</time>
<extensions>
<gpx10:speed>1.5811388492584229</gpx10:speed>
<ogt10:accuracy>6.0</ogt10:accuracy>
<gpx10:course>290.29998779296875</gpx10:course></extensions>
</trkpt>
<trkpt lat="46.66553947" lon="7.70670764">
<ele>771.0999755859375</ele>
<time>2011-03-05T13:10:25Z</time>
<extensions>
<gpx10:speed>1.0</gpx10:speed>
<ogt10:accuracy>5.0</ogt10:accuracy>
<gpx10:course>1.399999976158142</gpx10:course></extensions>
</trkpt>
<trkpt lat="46.66562714" lon="7.7066204">
<ele>772.4000244140625</ele>
<time>2011-03-05T13:10:31Z</time>
<extensions>
<gpx10:speed>1.75</gpx10:speed>
<ogt10:accuracy>10.0</ogt10:accuracy>
<gpx10:course>330.1000061035156</gpx10:course></extensions>
</trkpt>
<trkpt lat="46.66561691" lon="7.70648689">
<ele>773.2999877929688</ele>
<time>2011-03-05T13:10:35Z</time>
<extensions>
<gpx10:speed>2.0615527629852295</gpx10:speed>
<ogt10:accuracy>9.0</ogt10:accuracy>
<gpx10:course>219.0</gpx10:course></extensions>
</trkpt>
<trkpt lat="46.66567052" lon="7.70638968">
<ele>769.0</ele>
<time>2011-03-05T13:10:42Z</time>
<extensions>
<gpx10:speed>0.5</gpx10:speed>
<ogt10:accuracy>8.0</ogt10:accuracy>
<gpx10:course>216.89999389648438</gpx10:course></extensions>
</trkpt>
<trkpt lat="46.66575145" lon="7.70629879">
<ele>762.0</ele>
<time>2011-03-05T13:10:46Z</time>
<extensions>
<gpx10:speed>1.8027756214141846</gpx10:speed>
<ogt10:accuracy>7.0</ogt10:accuracy>
<gpx10:course>326.0</gpx10:course></extensions>
</trkpt>
<trkpt lat="46.66589673" lon="7.70614886">
<ele>761.0999755859375</ele>
<time>2011-03-05T13:10:56Z</time>
<extensions>
<gpx10:speed>1.5</gpx10:speed>
<ogt10:accuracy>10.0</ogt10:accuracy>
<gpx10:course>306.8999938964844</gpx10:course></extensions>
</trkpt>
<trkpt lat="46.66604475" lon="7.70607478">
<ele>763.0</ele>
<time>2011-03-05T13:11:09Z</time>
<extensions>
<gpx10:speed>3.041381359100342</gpx10:speed>
<ogt10:accuracy>11.0</ogt10:accuracy>
<gpx10:course>355.0</gpx10:course></extensions>
</trkpt>
<trkpt lat="46.66600081" lon="7.70590067">
<ele>757.0999755859375</ele>
<time>2011-03-05T13:11:21Z</time>
<extensions>
<gpx10:speed>1.5</gpx10:speed>
<ogt10:accuracy>10.0</ogt10:accuracy>
<gpx10:course>248.6999969482422</gpx10:course></extensions>
</trkpt>
<trkpt lat="46.66608466" lon="7.70586045">
<ele>754.9000244140625</ele>
<time>2011-03-05T13:11:26Z</time>
<extensions>
<gpx10:speed>2.2360680103302</gpx10:speed>
<ogt10:accuracy>8.0</ogt10:accuracy>
<gpx10:course>10.399999618530273</gpx10:course></extensions>
</trkpt>
<trkpt lat="46.66611117" lon="7.70571169">
<ele>758.9000244140625</ele>
<time>2011-03-05T13:11:35Z</time>
<extensions>
<gpx10:speed>1.0</gpx10:speed>
<ogt10:accuracy>9.0</ogt10:accuracy>
<gpx10:course>280.29998779296875</gpx10:course></extensions>
</trkpt>
<trkpt lat="46.6661108" lon="7.70555241">
<ele>763.4000244140625</ele>
<time>2011-03-05T13:11:43Z</time>
<extensions>
<gpx10:speed>1.0</gpx10:speed>
<ogt10:accuracy>8.0</ogt10:accuracy>
<gpx10:course>278.1000061035156</gpx10:course></extensions>
</trkpt>
<trkpt lat="46.6660112" lon="7.70545571">
<ele>765.2000122070313</ele>
<time>2011-03-05T13:11:53Z</time>
<extensions>
<gpx10:speed>1.25</gpx10:speed>
<ogt10:accuracy>9.0</ogt10:accuracy>
<gpx10:course>224.1999969482422</gpx10:course></extensions>
</trkpt>
<trkpt lat="46.66611958" lon="7.70513208">
<ele>774.2000122070313</ele>
<time>2011-03-05T13:12:05Z</time>
<extensions>
<gpx10:speed>2.5124688148498535</gpx10:speed>
<ogt10:accuracy>8.0</ogt10:accuracy>
<gpx10:course>302.20001220703125</gpx10:course></extensions>
</trkpt>
<trkpt lat="46.66621677" lon="7.70498255">
<ele>776.2000122070313</ele>
<time>2011-03-05T13:12:15Z</time>
<extensions>
<gpx10:speed>2.0</gpx10:speed>
<ogt10:accuracy>9.0</ogt10:accuracy>
<gpx10:course>316.29998779296875</gpx10:course></extensions>
</trkpt>
<trkpt lat="46.66627417" lon="7.70488015">
<ele>770.0</ele>
<time>2011-03-05T13:12:20Z</time>
<extensions>
<gpx10:speed>0.5</gpx10:speed>
<ogt10:accuracy>10.0</ogt10:accuracy>
<gpx10:course>325.70001220703125</gpx10:course></extensions>
</trkpt>
<trkpt lat="46.66646377" lon="7.7047683">
<ele>760.0</ele>
<time>2011-03-05T13:12:47Z</time>
<extensions>
<gpx10:speed>0.75</gpx10:speed>
<ogt10:accuracy>10.0</ogt10:accuracy>
<gpx10:course>304.79998779296875</gpx10:course></extensions>
</trkpt>
<trkpt lat="46.66653119" lon="7.70465802">
<ele>759.5999755859375</ele>
<time>2011-03-05T13:12:56Z</time>
<extensions>
<gpx10:speed>0.75</gpx10:speed>
<ogt10:accuracy>10.0</ogt10:accuracy>
<gpx10:course>332.20001220703125</gpx10:course></extensions>
</trkpt>
<trkpt lat="46.66662881" lon="7.70455968">
<ele>760.5999755859375</ele>
<time>2011-03-05T13:13:05Z</time>
<extensions>
<gpx10:speed>1.0</gpx10:speed>
<ogt10:accuracy>8.0</ogt10:accuracy>
<gpx10:course>340.20001220703125</gpx10:course></extensions>
</trkpt>
<trkpt lat="46.66671003" lon="7.70448883">
<ele>759.7000122070313</ele>
<time>2011-03-05T13:13:10Z</time>
<extensions>
<gpx10:speed>0.75</gpx10:speed>
<ogt10:accuracy>7.0</ogt10:accuracy>
<gpx10:course>336.1000061035156</gpx10:course></extensions>
</trkpt>
<trkpt lat="46.66678469" lon="7.704482">
<ele>756.9000244140625</ele>
<time>2011-03-05T13:13:13Z</time>
<extensions>
<gpx10:speed>1.25</gpx10:speed>
<ogt10:accuracy>8.0</ogt10:accuracy>
<gpx10:course>302.6000061035156</gpx10:course></extensions>
</trkpt>
<trkpt lat="46.66692717" lon="7.70440762">
<ele>764.0</ele>
<time>2011-03-05T13:13:31Z</time>
<extensions>
<ogt10:accuracy>9.0</ogt10:accuracy></extensions>
</trkpt>
<trkpt lat="46.66697004" lon="7.70430923">
<ele>753.5999755859375</ele>
<time>2011-03-05T13:13:41Z</time>
<extensions>
<gpx10:speed>1.25</gpx10:speed>
<ogt10:accuracy>7.0</ogt10:accuracy>
<gpx10:course>315.20001220703125</gpx10:course></extensions>
</trkpt>
<trkpt lat="46.66703593" lon="7.70419793">
<ele>756.5</ele>
<time>2011-03-05T13:13:55Z</time>
<extensions>
<gpx10:speed>1.25</gpx10:speed>
<ogt10:accuracy>10.0</ogt10:accuracy>
<gpx10:course>300.5</gpx10:course></extensions>
</trkpt>
<trkpt lat="46.66762418" lon="7.70395404">
<ele>736.9000244140625</ele>
<time>2011-03-05T13:14:24Z</time>
<extensions>
<gpx10:speed>1.75</gpx10:speed>
<ogt10:accuracy>10.0</ogt10:accuracy>
<gpx10:course>335.6000061035156</gpx10:course></extensions>
</trkpt>
<trkpt lat="46.66767984" lon="7.7038441">
<ele>735.5</ele>
<time>2011-03-05T13:14:37Z</time>
<extensions>
<gpx10:speed>1.820027470588684</gpx10:speed>
<ogt10:accuracy>9.0</ogt10:accuracy>
<gpx10:course>312.5</gpx10:course></extensions>
</trkpt>
<trkpt lat="46.6677681" lon="7.70388225">
<ele>730.0999755859375</ele>
<time>2011-03-05T13:14:39Z</time>
<extensions>
<gpx10:speed>3.0</gpx10:speed>
<ogt10:accuracy>10.0</ogt10:accuracy>
<gpx10:course>358.29998779296875</gpx10:course></extensions>
</trkpt>
<trkpt lat="46.66786894" lon="7.70363891">
<ele>725.4000244140625</ele>
<time>2011-03-05T13:14:54Z</time>
<extensions>
<gpx10:speed>1.75</gpx10:speed>
<ogt10:accuracy>8.0</ogt10:accuracy>
<gpx10:course>335.1000061035156</gpx10:course></extensions>
</trkpt>
<trkpt lat="46.66795734" lon="7.7036258">
<ele>725.0999755859375</ele>
<time>2011-03-05T13:15:06Z</time>
<extensions>
<gpx10:speed>1.0</gpx10:speed>
<ogt10:accuracy>8.0</ogt10:accuracy>
<gpx10:course>337.3999938964844</gpx10:course></extensions>
</trkpt>
<trkpt lat="46.66801252" lon="7.70354832">
<ele>721.4000244140625</ele>
<time>2011-03-05T13:15:10Z</time>
<extensions>
<gpx10:speed>2.5</gpx10:speed>
<ogt10:accuracy>7.0</ogt10:accuracy>
<gpx10:course>327.3999938964844</gpx10:course></extensions>
</trkpt>
<trkpt lat="46.66810998" lon="7.70347877">
<ele>718.0999755859375</ele>
<time>2011-03-05T13:15:13Z</time>
<extensions>
<gpx10:speed>3.0</gpx10:speed>
<ogt10:accuracy>7.0</ogt10:accuracy>
<gpx10:course>338.3999938964844</gpx10:course></extensions>
</trkpt>
<trkpt lat="46.66821441" lon="7.70319803">
<ele>718.9000244140625</ele>
<time>2011-03-05T13:15:30Z</time>
<extensions>
<gpx10:speed>2.3048861026763916</gpx10:speed>
<ogt10:accuracy>9.0</ogt10:accuracy>
<gpx10:course>308.29998779296875</gpx10:course></extensions>
</trkpt>
<trkpt lat="46.6683055" lon="7.70314521">
<ele>719.4000244140625</ele>
<time>2011-03-05T13:15:38Z</time>
<extensions>
<gpx10:speed>1.5</gpx10:speed>
<ogt10:accuracy>7.0</ogt10:accuracy>
<gpx10:course>348.70001220703125</gpx10:course></extensions>
</trkpt>
<trkpt lat="46.66835535" lon="7.7031309">
<ele>719.2999877929688</ele>
<time>2011-03-05T13:15:43Z</time>
<extensions>
<gpx10:speed>1.25</gpx10:speed>
<ogt10:accuracy>5.0</ogt10:accuracy>
<gpx10:course>329.6000061035156</gpx10:course></extensions>
</trkpt>
<trkpt lat="46.66839687" lon="7.70310361">
<ele>717.0</ele>
<time>2011-03-05T13:15:45Z</time>
<extensions>
<gpx10:speed>1.820027470588684</gpx10:speed>
<ogt10:accuracy>4.0</ogt10:accuracy>
<gpx10:course>316.70001220703125</gpx10:course></extensions>
</trkpt>
<trkpt lat="46.66843882" lon="7.70302693">
<ele>717.4000244140625</ele>
<time>2011-03-05T13:15:49Z</time>
<extensions>
<gpx10:speed>2.5</gpx10:speed>
<ogt10:accuracy>6.0</ogt10:accuracy>
<gpx10:course>308.0</gpx10:course></extensions>
</trkpt>
<trkpt lat="46.66853015" lon="7.70306234">
<ele>714.5</ele>
<time>2011-03-05T13:15:59Z</time>
<extensions>
<gpx10:speed>1.25</gpx10:speed>
<ogt10:accuracy>8.0</ogt10:accuracy>
<gpx10:course>14.0</gpx10:course></extensions>
</trkpt>
<trkpt lat="46.66863281" lon="7.70297658">
<ele>710.5</ele>
<time>2011-03-05T13:16:04Z</time>
<extensions>
<gpx10:speed>1.75</gpx10:speed>
<ogt10:accuracy>8.0</ogt10:accuracy>
<gpx10:course>336.1000061035156</gpx10:course></extensions>
</trkpt>
<trkpt lat="46.66873004" lon="7.70293153">
<ele>713.0</ele>
<time>2011-03-05T13:16:19Z</time>
<extensions>
<gpx10:speed>1.25</gpx10:speed>
<ogt10:accuracy>7.0</ogt10:accuracy>
<gpx10:course>28.0</gpx10:course></extensions>
</trkpt>
<trkpt lat="46.66877841" lon="7.70295115">
<ele>712.5</ele>
<time>2011-03-05T13:16:23Z</time>
<extensions>
<gpx10:speed>1.25</gpx10:speed>
<ogt10:accuracy>5.0</ogt10:accuracy>
<gpx10:course>9.699999809265137</gpx10:course></extensions>
</trkpt>
<trkpt lat="46.66885761" lon="7.70301782">
<ele>712.7000122070313</ele>
<time>2011-03-05T13:16:27Z</time>
<extensions>
<gpx10:speed>2.0</gpx10:speed>
<ogt10:accuracy>6.0</ogt10:accuracy>
<gpx10:course>25.299999237060547</gpx10:course></extensions>
</trkpt>
<trkpt lat="46.66891162" lon="7.70309785">
<ele>708.0999755859375</ele>
<time>2011-03-05T13:16:34Z</time>
<extensions>
<gpx10:speed>1.75</gpx10:speed>
<ogt10:accuracy>7.0</ogt10:accuracy>
<gpx10:course>33.400001525878906</gpx10:course></extensions>
</trkpt>
<trkpt lat="46.66900694" lon="7.70317428">
<ele>704.5999755859375</ele>
<time>2011-03-05T13:16:44Z</time>
<extensions>
<gpx10:speed>1.5811388492584229</gpx10:speed>
<ogt10:accuracy>7.0</ogt10:accuracy>
<gpx10:course>11.899999618530273</gpx10:course></extensions>
</trkpt>
<trkpt lat="46.66912342" lon="7.70317658">
<ele>710.2999877929688</ele>
<time>2011-03-05T13:16:53Z</time>
<extensions>
<gpx10:speed>2.5</gpx10:speed>
<ogt10:accuracy>5.0</ogt10:accuracy>
<gpx10:course>349.3999938964844</gpx10:course></extensions>
</trkpt>
<trkpt lat="46.6691562" lon="7.70312912">
<ele>714.2999877929688</ele>
<time>2011-03-05T13:16:58Z</time>
<extensions>
<gpx10:speed>0.9013878107070923</gpx10:speed>
<ogt10:accuracy>5.0</ogt10:accuracy>
<gpx10:course>318.1000061035156</gpx10:course></extensions>
</trkpt>
<trkpt lat="46.66920665" lon="7.70317914">
<ele>709.5</ele>
<time>2011-03-05T13:17:01Z</time>
<extensions>
<gpx10:speed>1.5811388492584229</gpx10:speed>
<ogt10:accuracy>4.0</ogt10:accuracy>
<gpx10:course>6.400000095367432</gpx10:course></extensions>
</trkpt>
<trkpt lat="46.66925534" lon="7.7031789">
<ele>707.7000122070313</ele>
<time>2011-03-05T13:17:05Z</time>
<extensions>
<gpx10:speed>1.25</gpx10:speed>
<ogt10:accuracy>5.0</ogt10:accuracy>
<gpx10:course>6.800000190734863</gpx10:course></extensions>
</trkpt>
<trkpt lat="46.66928988" lon="7.703132">
<ele>705.0999755859375</ele>
<time>2011-03-05T13:17:09Z</time>
<extensions>
<gpx10:speed>1.25</gpx10:speed>
<ogt10:accuracy>5.0</ogt10:accuracy>
<gpx10:course>339.79998779296875</gpx10:course></extensions>
</trkpt>
<trkpt lat="46.66934056" lon="7.70310439">
<ele>702.7000122070313</ele>
<time>2011-03-05T13:17:12Z</time>
<extensions>
<gpx10:speed>1.5</gpx10:speed>
<ogt10:accuracy>6.0</ogt10:accuracy>
<gpx10:course>351.70001220703125</gpx10:course></extensions>
</trkpt>
<trkpt lat="46.6693795" lon="7.70296961">
<ele>704.4000244140625</ele>
<time>2011-03-05T13:17:20Z</time>
<extensions>
<gpx10:speed>1.25</gpx10:speed>
<ogt10:accuracy>5.0</ogt10:accuracy>
<gpx10:course>331.5</gpx10:course></extensions>
</trkpt>
<trkpt lat="46.66942678" lon="7.70301053">
<ele>703.5</ele>
<time>2011-03-05T13:17:26Z</time>
<extensions>
<gpx10:speed>1.346291184425354</gpx10:speed>
<ogt10:accuracy>4.0</ogt10:accuracy>
<gpx10:course>8.899999618530273</gpx10:course></extensions>
</trkpt>
<trkpt lat="46.6694757" lon="7.70302857">
<ele>703.7999877929688</ele>
<time>2011-03-05T13:17:34Z</time>
<extensions>
<gpx10:speed>0.7071067690849304</gpx10:speed>
<ogt10:accuracy>5.0</ogt10:accuracy>
<gpx10:course>341.6000061035156</gpx10:course></extensions>
</trkpt>
<trkpt lat="46.6695244" lon="7.70303865">
<ele>695.5999755859375</ele>
<time>2011-03-05T13:17:36Z</time>
<extensions>
<gpx10:speed>1.0</gpx10:speed>
<ogt10:accuracy>5.0</ogt10:accuracy>
<gpx10:course>1.7999999523162842</gpx10:course></extensions>
</trkpt>
<trkpt lat="46.66957183" lon="7.70298555">
<ele>695.7000122070313</ele>
<time>2011-03-05T13:17:40Z</time>
<extensions>
<gpx10:speed>2.015564441680908</gpx10:speed>
<ogt10:accuracy>4.0</ogt10:accuracy>
<gpx10:course>348.8999938964844</gpx10:course></extensions>
</trkpt>
<trkpt lat="46.66961929" lon="7.70299256">
<ele>692.9000244140625</ele>
<time>2011-03-05T13:17:44Z</time>
<extensions>
<gpx10:speed>1.6007810831069946</gpx10:speed>
<ogt10:accuracy>4.0</ogt10:accuracy>
<gpx10:course>0.800000011920929</gpx10:course></extensions>
</trkpt>
<trkpt lat="46.66966619" lon="7.70300039">
<ele>689.2999877929688</ele>
<time>2011-03-05T13:17:47Z</time>
<extensions>
<gpx10:speed>1.346291184425354</gpx10:speed>
<ogt10:accuracy>4.0</ogt10:accuracy>
<gpx10:course>3.4000000953674316</gpx10:course></extensions>
</trkpt>
<trkpt lat="46.66968099" lon="7.70291475">
<ele>684.9000244140625</ele>
<time>2011-03-05T13:17:50Z</time>
<extensions>
<gpx10:speed>2.015564441680908</gpx10:speed>
<ogt10:accuracy>4.0</ogt10:accuracy>
<gpx10:course>288.0</gpx10:course></extensions>
</trkpt>
<trkpt lat="46.66972596" lon="7.7028641">
<ele>684.0</ele>
<time>2011-03-05T13:17:52Z</time>
<extensions>
<gpx10:speed>2.0615527629852295</gpx10:speed>
<ogt10:accuracy>6.0</ogt10:accuracy>
<gpx10:course>312.70001220703125</gpx10:course></extensions>
</trkpt>
<trkpt lat="46.66981272" lon="7.70290353">
<ele>683.0</ele>
<time>2011-03-05T13:17:58Z</time>
<extensions>
<gpx10:speed>1.5</gpx10:speed>
<ogt10:accuracy>7.0</ogt10:accuracy>
<gpx10:course>356.8999938964844</gpx10:course></extensions>
</trkpt>
<trkpt lat="46.66992212" lon="7.70293796">
<ele>681.4000244140625</ele>
<time>2011-03-05T13:18:05Z</time>
<extensions>
<gpx10:speed>1.0</gpx10:speed>
<ogt10:accuracy>6.0</ogt10:accuracy>
<gpx10:course>3.299999952316284</gpx10:course></extensions>
</trkpt>
<trkpt lat="46.66996751" lon="7.70288819">
<ele>683.5</ele>
<time>2011-03-05T13:18:16Z</time>
<extensions>
<gpx10:speed>1.25</gpx10:speed>
<ogt10:accuracy>6.0</ogt10:accuracy>
<gpx10:course>347.8999938964844</gpx10:course></extensions>
</trkpt>
<trkpt lat="46.67000904" lon="7.70274484">
<ele>682.2000122070313</ele>
<time>2011-03-05T13:19:35Z</time>
<extensions>
<gpx10:speed>1.346291184425354</gpx10:speed>
<ogt10:accuracy>10.0</ogt10:accuracy>
<gpx10:course>266.8999938964844</gpx10:course></extensions>
</trkpt>
<trkpt lat="46.67011655" lon="7.70281981">
<ele>684.4000244140625</ele>
<time>2011-03-05T13:19:49Z</time>
<extensions>
<gpx10:speed>0.75</gpx10:speed>
<ogt10:accuracy>10.0</ogt10:accuracy>
<gpx10:course>344.5</gpx10:course></extensions>
</trkpt>
<trkpt lat="46.67015658" lon="7.70280896">
<ele>681.5999755859375</ele>
<time>2011-03-05T13:20:12Z</time>
<extensions>
<gpx10:speed>0.5</gpx10:speed>
<ogt10:accuracy>7.0</ogt10:accuracy>
<gpx10:course>280.3999938964844</gpx10:course></extensions>
</trkpt>
<trkpt lat="46.67010483" lon="7.70282009">
<ele>685.9000244140625</ele>
<time>2011-03-05T13:20:25Z</time>
<extensions>
<gpx10:speed>0.25</gpx10:speed>
<ogt10:accuracy>7.0</ogt10:accuracy>
<gpx10:course>280.3999938964844</gpx10:course></extensions>
</trkpt>
<trkpt lat="46.6721396" lon="7.70028676">
<ele>652.9000244140625</ele>
<time>2011-03-05T13:26:41Z</time>
<extensions>
<gpx10:speed>1.75</gpx10:speed>
<ogt10:accuracy>16.0</ogt10:accuracy>
<gpx10:course>31.299999237060547</gpx10:course></extensions>
</trkpt>
<trkpt lat="46.67228672" lon="7.70113859">
<ele>651.2000122070313</ele>
<time>2011-03-05T13:27:18Z</time>
<extensions>
<gpx10:speed>1.5</gpx10:speed>
<ogt10:accuracy>13.0</ogt10:accuracy>
<gpx10:course>81.69999694824219</gpx10:course></extensions>
</trkpt>
<trkpt lat="46.67208288" lon="7.7015316">
<ele>645.7999877929688</ele>
<time>2011-03-05T13:27:38Z</time>
<extensions>
<gpx10:speed>2.0</gpx10:speed>
<ogt10:accuracy>14.0</ogt10:accuracy>
<gpx10:course>121.5</gpx10:course></extensions>
</trkpt>
<trkpt lat="46.67241315" lon="7.70248596">
<ele>652.5</ele>
<time>2011-03-05T13:28:22Z</time>
<extensions>
<gpx10:speed>1.75</gpx10:speed>
<ogt10:accuracy>12.0</ogt10:accuracy>
<gpx10:course>64.30000305175781</gpx10:course></extensions>
</trkpt>
<trkpt lat="46.67269227" lon="7.70222064">
<ele>652.0</ele>
<time>2011-03-05T13:28:55Z</time>
<extensions>
<gpx10:speed>1.75</gpx10:speed>
<ogt10:accuracy>12.0</ogt10:accuracy>
<gpx10:course>317.0</gpx10:course></extensions>
</trkpt>
<trkpt lat="46.67285" lon="7.70222294">
<ele>649.2000122070313</ele>
<time>2011-03-05T13:29:05Z</time>
<extensions>
<gpx10:speed>1.75</gpx10:speed>
<ogt10:accuracy>12.0</ogt10:accuracy>
<gpx10:course>350.5</gpx10:course></extensions>
</trkpt>
<trkpt lat="46.67290577" lon="7.70207663">
<ele>649.0999755859375</ele>
<time>2011-03-05T13:29:13Z</time>
<extensions>
<gpx10:speed>1.5</gpx10:speed>
<ogt10:accuracy>10.0</ogt10:accuracy>
<gpx10:course>321.70001220703125</gpx10:course></extensions>
</trkpt>
<trkpt lat="46.67293843" lon="7.70193633">
<ele>649.0999755859375</ele>
<time>2011-03-05T13:29:17Z</time>
<extensions>
<gpx10:speed>2.25</gpx10:speed>
<ogt10:accuracy>7.0</ogt10:accuracy>
<gpx10:course>307.3999938964844</gpx10:course></extensions>
</trkpt>
<trkpt lat="46.67297897" lon="7.70183291">
<ele>645.0</ele>
<time>2011-03-05T13:29:23Z</time>
<extensions>
<gpx10:speed>1.75</gpx10:speed>
<ogt10:accuracy>7.0</ogt10:accuracy>
<gpx10:course>316.29998779296875</gpx10:course></extensions>
</trkpt>
<trkpt lat="46.6730991" lon="7.70184626">
<ele>643.0</ele>
<time>2011-03-05T13:29:30Z</time>
<extensions>
<gpx10:speed>1.75</gpx10:speed>
<ogt10:accuracy>10.0</ogt10:accuracy>
<gpx10:course>334.3999938964844</gpx10:course></extensions>
</trkpt>
<trkpt lat="46.6732146" lon="7.70191625">
<ele>643.0</ele>
<time>2011-03-05T13:29:43Z</time>
<extensions>
<gpx10:speed>1.25</gpx10:speed>
<ogt10:accuracy>8.0</ogt10:accuracy>
<gpx10:course>14.199999809265137</gpx10:course></extensions>
</trkpt>
<trkpt lat="46.67346429" lon="7.70200766">
<ele>638.4000244140625</ele>
<time>2011-03-05T13:30:06Z</time>
<extensions>
<gpx10:speed>1.75</gpx10:speed>
<ogt10:accuracy>10.0</ogt10:accuracy>
<gpx10:course>16.799999237060547</gpx10:course></extensions>
</trkpt>
<trkpt lat="46.67362119" lon="7.70201653">
<ele>638.0</ele>
<time>2011-03-05T13:30:20Z</time>
<extensions>
<gpx10:speed>1.25</gpx10:speed>
<ogt10:accuracy>10.0</ogt10:accuracy>
<gpx10:course>353.29998779296875</gpx10:course></extensions>
</trkpt>
<trkpt lat="46.67356749" lon="7.70204056">
<ele>638.7999877929688</ele>
<time>2011-03-05T13:30:34Z</time>
<extensions>
<gpx10:speed>1.25</gpx10:speed>
<ogt10:accuracy>6.0</ogt10:accuracy>
<gpx10:course>166.1999969482422</gpx10:course></extensions>
</trkpt>
<trkpt lat="46.67359484" lon="7.70191096">
<ele>636.7000122070313</ele>
<time>2011-03-05T13:30:45Z</time>
<extensions>
<gpx10:speed>1.0</gpx10:speed>
<ogt10:accuracy>6.0</ogt10:accuracy>
<gpx10:course>237.1999969482422</gpx10:course></extensions>
</trkpt>
<trkpt lat="46.67369127" lon="7.70184624">
<ele>637.0</ele>
<time>2011-03-05T13:30:53Z</time>
<extensions>
<gpx10:speed>0.75</gpx10:speed>
<ogt10:accuracy>10.0</ogt10:accuracy>
<gpx10:course>290.29998779296875</gpx10:course></extensions>
</trkpt>
<trkpt lat="46.67411799" lon="7.70174331">
<ele>635.2000122070313</ele>
<time>2011-03-05T13:31:13Z</time>
<extensions>
<gpx10:speed>1.75</gpx10:speed>
<ogt10:accuracy>9.0</ogt10:accuracy>
<gpx10:course>337.1000061035156</gpx10:course></extensions>
</trkpt>
<trkpt lat="46.67420479" lon="7.70168479">
<ele>635.4000244140625</ele>
<time>2011-03-05T13:31:24Z</time>
<extensions>
<gpx10:speed>1.5</gpx10:speed>
<ogt10:accuracy>8.0</ogt10:accuracy>
<gpx10:course>332.8999938964844</gpx10:course></extensions>
</trkpt>
<trkpt lat="46.67431707" lon="7.70165425">
<ele>635.4000244140625</ele>
<time>2011-03-05T13:31:28Z</time>
<extensions>
<gpx10:speed>2.75</gpx10:speed>
<ogt10:accuracy>9.0</ogt10:accuracy>
<gpx10:course>339.20001220703125</gpx10:course></extensions>
</trkpt>
<trkpt lat="46.67448939" lon="7.7017071">
<ele>634.5</ele>
<time>2011-03-05T13:31:34Z</time>
<extensions>
<gpx10:speed>2.75</gpx10:speed>
<ogt10:accuracy>12.0</ogt10:accuracy>
<gpx10:course>2.700000047683716</gpx10:course></extensions>
</trkpt>
<trkpt lat="46.6743816" lon="7.70147095">
<ele>631.2000122070313</ele>
<time>2011-03-05T13:31:42Z</time>
<extensions>
<gpx10:speed>1.5</gpx10:speed>
<ogt10:accuracy>11.0</ogt10:accuracy>
<gpx10:course>322.8999938964844</gpx10:course></extensions>
</trkpt>
<trkpt lat="46.67451323" lon="7.70144054">
<ele>629.9000244140625</ele>
<time>2011-03-05T13:31:48Z</time>
<extensions>
<gpx10:speed>1.75</gpx10:speed>
<ogt10:accuracy>10.0</ogt10:accuracy>
<gpx10:course>351.20001220703125</gpx10:course></extensions>
</trkpt>
<trkpt lat="46.67460534" lon="7.70136012">
<ele>630.5</ele>
<time>2011-03-05T13:31:54Z</time>
<extensions>
<gpx10:speed>1.5</gpx10:speed>
<ogt10:accuracy>9.0</ogt10:accuracy>
<gpx10:course>324.70001220703125</gpx10:course></extensions>
</trkpt>
<trkpt lat="46.67472609" lon="7.70131684">
<ele>629.9000244140625</ele>
<time>2011-03-05T13:32:05Z</time>
<extensions>
<gpx10:speed>1.5</gpx10:speed>
<ogt10:accuracy>10.0</ogt10:accuracy>
<gpx10:course>337.5</gpx10:course></extensions>
</trkpt>
<trkpt lat="46.67477543" lon="7.70118148">
<ele>629.2000122070313</ele>
<time>2011-03-05T13:32:13Z</time>
<extensions>
<gpx10:speed>1.25</gpx10:speed>
<ogt10:accuracy>8.0</ogt10:accuracy>
<gpx10:course>335.1000061035156</gpx10:course></extensions>
</trkpt>
<trkpt lat="46.67485582" lon="7.70108157">
<ele>629.0</ele>
<time>2011-03-05T13:32:22Z</time>
<extensions>
<gpx10:speed>0.75</gpx10:speed>
<ogt10:accuracy>10.0</ogt10:accuracy>
<gpx10:course>343.1000061035156</gpx10:course></extensions>
</trkpt>
<trkpt lat="46.67494266" lon="7.70101733">
<ele>626.5999755859375</ele>
<time>2011-03-05T13:32:30Z</time>
<extensions>
<gpx10:speed>1.25</gpx10:speed>
<ogt10:accuracy>7.0</ogt10:accuracy>
<gpx10:course>337.6000061035156</gpx10:course></extensions>
</trkpt>
<trkpt lat="46.67503911" lon="7.70095814">
<ele>624.7999877929688</ele>
<time>2011-03-05T13:32:37Z</time>
<extensions>
<gpx10:speed>1.25</gpx10:speed>
<ogt10:accuracy>8.0</ogt10:accuracy>
<gpx10:course>334.29998779296875</gpx10:course></extensions>
</trkpt>
<trkpt lat="46.67516732" lon="7.70094357">
<ele>624.0999755859375</ele>
<time>2011-03-05T13:32:45Z</time>
<extensions>
<gpx10:speed>1.75</gpx10:speed>
<ogt10:accuracy>10.0</ogt10:accuracy>
<gpx10:course>351.1000061035156</gpx10:course></extensions>
</trkpt>
<trkpt lat="46.67521859" lon="7.7008297">
<ele>625.4000244140625</ele>
<time>2011-03-05T13:32:51Z</time>
<extensions>
<gpx10:speed>1.5</gpx10:speed>
<ogt10:accuracy>9.0</ogt10:accuracy>
<gpx10:course>344.3999938964844</gpx10:course></extensions>
</trkpt>
<trkpt lat="46.67537743" lon="7.70079412">
<ele>627.2000122070313</ele>
<time>2011-03-05T13:33:03Z</time>
<extensions>
<gpx10:speed>1.5</gpx10:speed>
<ogt10:accuracy>11.0</ogt10:accuracy>
<gpx10:course>317.0</gpx10:course></extensions>
</trkpt>
<trkpt lat="46.67562735" lon="7.70009238">
<ele>614.5999755859375</ele>
<time>2011-03-05T13:33:51Z</time>
<extensions>
<gpx10:speed>0.75</gpx10:speed>
<ogt10:accuracy>10.0</ogt10:accuracy>
<gpx10:course>236.10000610351563</gpx10:course></extensions>
</trkpt>
<trkpt lat="46.67558075" lon="7.69993602">
<ele>612.5</ele>
<time>2011-03-05T13:34:03Z</time>
<extensions>
<gpx10:speed>1.5</gpx10:speed>
<ogt10:accuracy>10.0</ogt10:accuracy>
<gpx10:course>243.8000030517578</gpx10:course></extensions>
</trkpt>
<trkpt lat="46.67564799" lon="7.69981304">
<ele>613.9000244140625</ele>
<time>2011-03-05T13:34:09Z</time>
<extensions>
<gpx10:speed>0.75</gpx10:speed>
<ogt10:accuracy>9.0</ogt10:accuracy>
<gpx10:course>251.39999389648438</gpx10:course></extensions>
</trkpt>
<trkpt lat="46.67564866" lon="7.69968656">
<ele>617.2000122070313</ele>
<time>2011-03-05T13:34:13Z</time>
<extensions>
<gpx10:speed>1.0</gpx10:speed>
<ogt10:accuracy>9.0</ogt10:accuracy>
<gpx10:course>260.70001220703125</gpx10:course></extensions>
</trkpt>
<trkpt lat="46.67563093" lon="7.69955755">
<ele>615.4000244140625</ele>
<time>2011-03-05T13:34:20Z</time>
<extensions>
<gpx10:speed>1.25</gpx10:speed>
<ogt10:accuracy>9.0</ogt10:accuracy>
<gpx10:course>257.3999938964844</gpx10:course></extensions>
</trkpt>
<trkpt lat="46.6756209" lon="7.69949857">
<ele>611.4000244140625</ele>
<time>2011-03-05T13:34:41Z</time>
<extensions>
<gpx10:speed>0.25</gpx10:speed>
<ogt10:accuracy>7.0</ogt10:accuracy>
<gpx10:course>252.0</gpx10:course></extensions>
</trkpt>
<trkpt lat="46.67572161" lon="7.69950187">
<ele>611.5999755859375</ele>
<time>2011-03-05T13:34:50Z</time>
<extensions>
<gpx10:speed>0.25</gpx10:speed>
<ogt10:accuracy>8.0</ogt10:accuracy>
<gpx10:course>252.0</gpx10:course></extensions>
</trkpt>
<trkpt lat="46.67565221" lon="7.69946134">
<ele>613.4000244140625</ele>
<time>2011-03-05T13:34:58Z</time>
<extensions>
<gpx10:speed>0.5</gpx10:speed>
<ogt10:accuracy>8.0</ogt10:accuracy>
<gpx10:course>252.0</gpx10:course></extensions>
</trkpt>
<trkpt lat="46.67572143" lon="7.69955149">
<ele>616.2999877929688</ele>
<time>2011-03-05T13:35:17Z</time>
<extensions>
<gpx10:speed>0.75</gpx10:speed>
<ogt10:accuracy>7.0</ogt10:accuracy>
<gpx10:course>252.0</gpx10:course></extensions>
</trkpt>
<trkpt lat="46.67566693" lon="7.69959825">
<ele>619.0</ele>
<time>2011-03-05T13:35:58Z</time>
<name>Faulensee Schule PP</name>
<extensions>
<gpx10:speed>0.25</gpx10:speed>
<ogt10:accuracy>9.0</ogt10:accuracy>
<gpx10:course>8.199999809265137</gpx10:course></extensions>
</trkpt>
</trkseg>
<trkseg>
<trkpt lat="46.675674" lon="7.69954143">
<ele>618.9000244140625</ele>
<time>2011-03-05T13:40:58Z</time>
<extensions>
<ogt10:accuracy>20.0</ogt10:accuracy></extensions>
</trkpt>
<trkpt lat="46.6790643" lon="7.69544282">
<ele>626.2000122070313</ele>
<time>2011-03-05T13:41:21Z</time>
<extensions>
<gpx10:speed>12.5</gpx10:speed>
<ogt10:accuracy>51.0</ogt10:accuracy>
<gpx10:course>334.70001220703125</gpx10:course></extensions>
</trkpt>
<trkpt lat="46.67943277" lon="7.6951234">
<ele>626.9000244140625</ele>
<time>2011-03-05T13:41:24Z</time>
<extensions>
<gpx10:speed>13.25</gpx10:speed>
<ogt10:accuracy>41.0</ogt10:accuracy>
<gpx10:course>330.5</gpx10:course></extensions>
</trkpt>
<trkpt lat="46.67969417" lon="7.69426292">
<ele>627.2000122070313</ele>
<time>2011-03-05T13:41:29Z</time>
<extensions>
<gpx10:speed>13.0</gpx10:speed>
<ogt10:accuracy>33.0</ogt10:accuracy>
<gpx10:course>303.79998779296875</gpx10:course></extensions>
</trkpt>
<trkpt lat="46.67988568" lon="7.69385555">
<ele>625.2000122070313</ele>
<time>2011-03-05T13:41:32Z</time>
<extensions>
<gpx10:speed>13.75</gpx10:speed>
<ogt10:accuracy>28.0</ogt10:accuracy>
<gpx10:course>298.8999938964844</gpx10:course></extensions>
</trkpt>
<trkpt lat="46.68241274" lon="7.69104057">
<ele>623.0999755859375</ele>
<time>2011-03-05T13:41:55Z</time>
<extensions>
<gpx10:speed>14.0</gpx10:speed>
<ogt10:accuracy>30.0</ogt10:accuracy>
<gpx10:course>304.20001220703125</gpx10:course></extensions>
</trkpt>
<trkpt lat="46.68258044" lon="7.69047865">
<ele>623.7000122070313</ele>
<time>2011-03-05T13:41:58Z</time>
<extensions>
<gpx10:speed>13.25</gpx10:speed>
<ogt10:accuracy>23.0</ogt10:accuracy>
<gpx10:course>292.79998779296875</gpx10:course></extensions>
</trkpt>
<trkpt lat="46.68267216" lon="7.69001058">
<ele>624.5999755859375</ele>
<time>2011-03-05T13:42:01Z</time>
<extensions>
<gpx10:speed>12.75</gpx10:speed>
<ogt10:accuracy>20.0</ogt10:accuracy>
<gpx10:course>288.3999938964844</gpx10:course></extensions>
</trkpt>
<trkpt lat="46.68274531" lon="7.68947675">
<ele>626.0999755859375</ele>
<time>2011-03-05T13:42:04Z</time>
<extensions>
<gpx10:speed>13.5</gpx10:speed>
<ogt10:accuracy>18.0</ogt10:accuracy>
<gpx10:course>284.3999938964844</gpx10:course></extensions>
</trkpt>
<trkpt lat="46.68287415" lon="7.68904474">
<ele>627.0999755859375</ele>
<time>2011-03-05T13:42:07Z</time>
<extensions>
<gpx10:speed>12.75</gpx10:speed>
<ogt10:accuracy>17.0</ogt10:accuracy>
<gpx10:course>289.3999938964844</gpx10:course></extensions>
</trkpt>
</trkseg>
</trk>
</gpx>